createdAt,value
2018-06-21T00:01:57.671Z,99.90
2018-06-21T00:04:33.781Z,99.90
2018-06-21T00:07:09.197Z,99.90
2018-06-21T00:09:44.788Z,99.90
2018-06-21T00:12:19.945Z,99.90
2018-06-21T00:14:55.340Z,99.90
2018-06-21T00:17:30.530Z,99.90
2018-06-21T00:20:05.685Z,99.90
2018-06-21T00:22:40.805Z,99.90
2018-06-21T00:25:16.108Z,99.90
2018-06-21T00:27:51.489Z,99.90
2018-06-21T00:30:27.737Z,99.90
2018-06-21T00:33:03.054Z,99.90
2018-06-21T00:35:38.500Z,99.90
2018-06-21T00:38:13.881Z,99.90
2018-06-21T00:40:49.830Z,99.90
2018-06-21T00:43:25.101Z,99.90
2018-06-21T00:46:00.549Z,99.90
2018-06-21T00:48:35.882Z,99.90
2018-06-21T00:51:11.108Z,99.90
2018-06-21T00:53:46.145Z,99.90
2018-06-21T00:56:21.397Z,99.90
2018-06-21T00:58:56.730Z,99.90
2018-06-21T01:01:31.890Z,99.90
2018-06-21T01:06:42.414Z,99.90
2018-06-21T01:09:17.672Z,99.90
2018-06-21T01:11:53.170Z,99.90
2018-06-21T01:14:28.164Z,99.90
2018-06-21T01:17:03.434Z,99.90
2018-06-21T01:19:38.545Z,99.90
2018-06-21T01:22:13.757Z,99.90
2018-06-21T01:24:48.806Z,99.90
2018-06-21T01:27:24.146Z,99.40
2018-06-21T01:32:33.773Z,99.70
2018-06-21T01:35:08.652Z,99.90
2018-06-21T01:37:44.058Z,99.90
2018-06-21T01:40:19.923Z,99.70
2018-06-21T01:42:55.869Z,99.90
2018-06-21T01:45:31.192Z,99.90
2018-06-21T01:48:06.708Z,99.60
2018-06-21T01:50:43.120Z,99.20
2018-06-21T01:53:18.285Z,99.00
2018-06-21T01:55:53.443Z,99.20
2018-06-21T01:58:28.749Z,99.20
2018-06-21T02:01:04.453Z,99.10
2018-06-21T02:03:39.424Z,99.90
2018-06-21T02:06:14.508Z,99.90
2018-06-21T02:08:50.000Z,99.90
2018-06-21T02:11:24.928Z,99.90
2018-06-21T02:14:00.029Z,99.90
2018-06-21T02:16:35.009Z,99.90
2018-06-21T02:19:10.109Z,99.90
2018-06-21T02:21:45.030Z,99.90
2018-06-21T02:24:20.181Z,99.90
2018-06-21T02:26:55.253Z,99.90
2018-06-21T02:29:30.213Z,99.90
2018-06-21T02:32:05.322Z,99.90
2018-06-21T02:34:40.472Z,99.90
2018-06-21T02:37:15.362Z,99.90
2018-06-21T02:39:50.737Z,99.90
2018-06-21T02:42:25.707Z,99.90
2018-06-21T02:47:35.533Z,99.90
2018-06-21T02:50:10.977Z,99.90
2018-06-21T02:55:20.881Z,99.30
2018-06-21T02:57:55.745Z,98.30
2018-06-21T03:00:32.723Z,97.90
2018-06-21T03:05:42.462Z,96.50
2018-06-21T03:08:17.625Z,96.30
2018-06-21T03:10:53.868Z,96.40
2018-06-21T03:13:28.997Z,96.10
2018-06-21T03:16:04.508Z,95.40
2018-06-21T03:18:39.397Z,95.10
2018-06-21T03:21:14.597Z,94.50
2018-06-21T03:23:49.532Z,93.90
2018-06-21T03:26:24.800Z,94.70
2018-06-21T03:28:59.720Z,94.10
2018-06-21T03:31:35.129Z,92.90
2018-06-21T03:34:10.253Z,93.10
2018-06-21T03:36:45.605Z,93.10
2018-06-21T03:39:20.749Z,92.80
2018-06-21T03:41:55.979Z,92.10
2018-06-21T03:47:05.573Z,91.90
2018-06-21T03:49:40.688Z,91.40
2018-06-21T03:52:16.141Z,91.50
2018-06-21T03:54:51.084Z,90.80
2018-06-21T03:57:26.283Z,92.50
2018-06-21T04:00:01.250Z,92.40
2018-06-21T04:02:36.362Z,92.60
2018-06-21T04:05:11.549Z,93.30
2018-06-21T04:07:47.141Z,93.40
2018-06-21T04:33:01.469Z,92.70
2018-06-21T04:35:36.465Z,91.80
2018-06-21T04:38:11.870Z,93.20
2018-06-21T05:03:25.029Z,93.00
2018-06-21T05:06:00.201Z,92.20
2018-06-21T05:08:35.372Z,81.10
2018-06-21T05:11:10.338Z,80.50
2018-06-21T05:13:45.780Z,79.60
2018-06-21T05:16:21.161Z,78.20
2018-06-21T05:18:56.336Z,76.30
2018-06-21T05:21:31.517Z,75.20
2018-06-21T05:24:07.065Z,76.30
2018-06-21T05:26:42.336Z,73.80
2018-06-21T05:29:17.381Z,72.50
2018-06-21T05:31:52.605Z,71.90
2018-06-21T05:34:27.660Z,72.30
2018-06-21T05:37:02.787Z,72.60
2018-06-21T05:39:38.297Z,71.70
2018-06-21T05:42:13.768Z,72.50
2018-06-21T05:44:49.076Z,72.00
2018-06-21T05:47:24.366Z,72.30
2018-06-21T05:49:59.743Z,71.70
2018-06-21T05:52:35.287Z,73.20
2018-06-21T05:55:10.753Z,73.50
2018-06-21T05:57:45.722Z,73.80
2018-06-21T06:00:22.273Z,74.00
2018-06-21T06:02:57.262Z,73.20
2018-06-21T06:05:32.499Z,72.00
2018-06-21T06:08:07.915Z,72.10
2018-06-21T06:10:44.276Z,71.70
2018-06-21T06:15:54.312Z,71.90
2018-06-21T06:18:29.585Z,71.30
2018-06-21T06:21:04.614Z,69.90
2018-06-21T06:23:39.971Z,67.90
2018-06-21T06:26:15.180Z,67.30
2018-06-21T06:28:50.445Z,69.80
2018-06-21T06:31:25.566Z,69.50
2018-06-21T06:34:00.778Z,68.00
2018-06-21T06:36:36.021Z,66.90
2018-06-21T06:39:18.165Z,65.80
2018-06-21T06:41:53.634Z,65.30
2018-06-21T06:44:28.953Z,64.60
2018-06-21T06:47:04.547Z,65.50
2018-06-21T06:49:39.561Z,66.20
2018-06-21T06:52:14.825Z,65.80
2018-06-21T06:54:50.082Z,64.60
2018-06-21T06:57:25.392Z,64.80
2018-06-21T07:00:00.388Z,63.80
2018-06-21T07:02:36.072Z,63.20
2018-06-21T07:05:11.281Z,63.10
2018-06-21T07:07:46.590Z,62.60
2018-06-21T07:10:22.904Z,60.20
2018-06-21T07:12:58.268Z,59.70
2018-06-21T07:15:33.431Z,59.10
2018-06-21T07:18:08.832Z,59.00
2018-06-21T07:20:45.026Z,60.10
2018-06-21T07:23:20.293Z,60.30
2018-06-21T07:25:55.557Z,60.20
2018-06-21T07:28:31.163Z,59.50
2018-06-21T07:31:06.304Z,59.90
2018-06-21T07:33:41.681Z,59.70
2018-06-21T07:36:17.304Z,59.50
2018-06-21T07:38:52.847Z,58.40
2018-06-21T07:41:27.953Z,58.20
2018-06-21T07:44:03.538Z,57.70
2018-06-21T07:46:38.830Z,57.80
2018-06-21T07:49:14.233Z,57.60
2018-06-21T07:51:49.737Z,56.20
2018-06-21T07:54:24.884Z,54.40
2018-06-21T07:57:00.296Z,54.50
2018-06-21T07:59:35.777Z,53.70
2018-06-21T08:02:11.116Z,52.10
2018-06-21T08:04:46.384Z,52.50
2018-06-21T08:07:21.766Z,51.50
2018-06-21T08:09:57.078Z,52.20
2018-06-21T08:15:07.949Z,50.00
2018-06-21T08:17:43.229Z,51.20
2018-06-21T08:20:19.350Z,51.00
2018-06-21T08:22:54.687Z,51.20
2018-06-21T08:28:05.262Z,49.50
2018-06-21T08:30:40.926Z,49.40
2018-06-21T08:33:16.173Z,50.70
2018-06-21T08:35:51.372Z,48.40
2018-06-21T08:38:26.637Z,47.80
2018-06-21T08:41:03.041Z,48.00
2018-06-21T08:43:38.442Z,47.80
2018-06-21T08:46:13.837Z,45.80
2018-06-21T08:48:48.920Z,46.60
2018-06-21T08:51:24.077Z,45.90
2018-06-21T08:53:59.057Z,45.80
2018-06-21T08:56:34.657Z,44.60
2018-06-21T08:59:09.937Z,44.40
2018-06-21T09:01:45.117Z,43.00
2018-06-21T09:04:20.225Z,42.40
2018-06-21T09:07:06.387Z,42.60
2018-06-21T09:09:41.708Z,41.30
2018-06-21T09:12:17.962Z,42.60
2018-06-21T09:14:53.101Z,41.30
2018-06-21T09:17:28.258Z,41.70
2018-06-21T09:20:03.457Z,40.50
2018-06-21T09:22:38.910Z,40.70
2018-06-21T09:25:14.025Z,39.70
2018-06-21T09:27:49.229Z,39.70
2018-06-21T09:30:25.517Z,39.20
2018-06-21T09:33:00.705Z,38.80
2018-06-21T09:35:36.014Z,39.70
2018-06-21T09:38:16.636Z,39.40
2018-06-21T09:40:57.892Z,39.80
2018-06-21T09:43:50.291Z,38.70
2018-06-21T09:46:19.025Z,38.20
2018-06-21T09:48:54.437Z,38.00
2018-06-21T09:51:29.623Z,37.80
2018-06-21T09:54:05.444Z,37.90
2018-06-21T09:56:40.902Z,38.10
2018-06-21T09:59:16.217Z,38.40
2018-06-21T10:01:58.348Z,39.20
2018-06-21T10:04:33.865Z,39.00
2018-06-21T10:07:09.142Z,39.70
2018-06-21T10:09:45.845Z,40.10
2018-06-21T10:12:21.177Z,39.90
2018-06-21T10:14:56.404Z,39.20
2018-06-21T10:17:31.529Z,38.70
2018-06-21T10:20:06.873Z,38.60
2018-06-21T10:22:41.967Z,38.60
2018-06-21T10:25:17.134Z,38.30
2018-06-21T10:27:52.713Z,37.90
2018-06-21T10:30:29.576Z,38.70
2018-06-21T10:33:04.807Z,38.70
2018-06-21T10:48:51.407Z,37.60
2018-06-21T10:51:26.601Z,38.20
2018-06-21T10:54:02.132Z,39.20
2018-06-21T10:56:37.589Z,39.30
2018-06-21T10:59:12.977Z,39.70
2018-06-21T11:01:48.697Z,38.40
2018-06-21T11:04:24.001Z,38.20
2018-06-21T11:06:59.392Z,38.90
2018-06-21T11:09:34.701Z,38.00
2018-06-21T11:12:10.110Z,38.00
2018-06-21T11:14:45.486Z,37.40
2018-06-21T11:17:20.765Z,38.10
2018-06-21T11:19:56.426Z,36.00
2018-06-21T11:22:31.580Z,36.00
2018-06-21T11:25:06.800Z,36.40
2018-06-21T11:27:42.370Z,37.10
2018-06-21T11:30:19.000Z,36.40
2018-06-21T11:32:54.470Z,36.30
2018-06-21T11:38:04.957Z,37.50
2018-06-21T11:40:41.198Z,37.70
2018-06-21T11:43:16.469Z,36.80
2018-06-21T11:45:51.895Z,37.00
2018-06-21T11:48:27.005Z,36.30
2018-06-21T11:51:03.245Z,35.30
2018-06-21T11:53:38.572Z,36.70
2018-06-21T11:56:14.027Z,36.50
2018-06-21T11:58:49.526Z,35.50
2018-06-21T12:01:24.783Z,34.60
2018-06-21T12:04:00.097Z,34.40
2018-06-21T12:06:35.438Z,34.40
2018-06-21T12:09:11.389Z,35.00
2018-06-21T12:11:46.785Z,35.70
2018-06-21T12:14:22.175Z,35.40
2018-06-21T12:16:58.393Z,35.10
2018-06-21T12:19:33.840Z,34.00
2018-06-21T12:22:09.297Z,34.30
2018-06-21T12:24:44.814Z,33.40
2018-06-21T12:27:20.498Z,32.80
2018-06-21T12:29:55.801Z,33.00
2018-06-21T12:32:31.489Z,33.60
2018-06-21T12:35:06.971Z,33.90
2018-06-21T12:37:42.496Z,33.40
2018-06-21T12:40:18.693Z,33.40
2018-06-21T12:42:54.090Z,33.30
2018-06-21T12:45:29.292Z,33.60
2018-06-21T12:48:04.473Z,33.30
2018-06-21T13:10:02.513Z,32.90
2018-06-21T13:12:49.781Z,33.30
2018-06-21T13:15:25.335Z,34.50
2018-06-21T13:18:00.601Z,33.30
2018-06-21T13:35:17.668Z,32.80
2018-06-21T13:37:53.217Z,32.60
2018-06-21T13:40:29.664Z,32.20
2018-06-21T13:43:04.797Z,28.50
2018-06-21T13:48:14.937Z,31.60
2018-06-21T13:50:50.584Z,30.00
2018-06-21T13:53:25.968Z,29.10
2018-06-21T13:56:01.102Z,25.90
2018-06-21T13:58:36.467Z,24.00
2018-06-21T14:01:11.695Z,24.00
2018-06-21T14:03:47.047Z,24.80
2018-06-21T14:06:22.414Z,22.30
2018-06-21T14:08:57.451Z,22.50
2018-06-21T14:11:32.378Z,23.30
2018-06-21T14:14:07.253Z,22.00
2018-06-21T14:16:42.533Z,21.00
2018-06-21T14:21:52.584Z,20.50
2018-06-21T14:24:27.617Z,20.60
2018-06-21T14:27:02.707Z,20.70
2018-06-21T14:29:37.920Z,20.40
2018-06-21T14:34:47.953Z,19.70
2018-06-21T14:39:57.849Z,22.20
2018-06-21T14:42:33.570Z,20.90
2018-06-21T14:45:08.506Z,21.00
2018-06-21T14:47:43.522Z,20.00
2018-06-21T14:50:18.626Z,19.40
2018-06-21T14:52:54.148Z,20.20
2018-06-21T14:55:29.661Z,21.80
2018-06-21T14:58:05.201Z,21.10
2018-06-21T15:00:41.205Z,20.30
2018-06-21T15:05:51.426Z,18.90
2018-06-21T15:08:27.499Z,18.70
2018-06-21T15:33:39.765Z,18.80
2018-06-21T15:36:14.911Z,20.60
2018-06-21T15:38:50.564Z,18.50
2018-06-21T15:41:26.457Z,18.60
2018-06-21T15:44:16.003Z,18.50
2018-06-21T15:46:50.993Z,18.80
2018-06-21T15:49:26.451Z,19.40
2018-06-21T15:52:01.610Z,19.60
2018-06-21T15:54:36.818Z,19.40
2018-06-21T15:57:11.931Z,19.10
2018-06-21T15:59:47.033Z,19.10
2018-06-21T16:02:22.113Z,20.00
2018-06-21T16:04:57.441Z,19.60
2018-06-21T16:07:32.482Z,19.90
2018-06-21T16:10:09.511Z,20.90
2018-06-21T16:15:30.867Z,20.80
2018-06-21T16:18:06.275Z,20.80
2018-06-21T16:20:43.445Z,20.80
2018-06-21T16:23:33.682Z,20.10
2018-06-21T16:26:09.061Z,20.50
2018-06-21T16:28:44.187Z,19.50
2018-06-21T16:31:19.405Z,19.20
2018-06-21T16:33:54.546Z,18.90
2018-06-21T16:36:29.621Z,19.00
2018-06-21T16:39:06.427Z,19.70
2018-06-21T16:41:41.565Z,19.60
2018-06-21T16:44:16.626Z,20.80
2018-06-21T16:46:51.730Z,22.70
2018-06-21T16:49:26.872Z,23.80
2018-06-21T16:52:02.126Z,25.70
2018-06-21T16:54:37.204Z,27.80
2018-06-21T16:57:12.362Z,29.40
2018-06-21T20:46:59.909Z,99.90
2018-06-21T20:49:34.929Z,99.90
2018-06-21T20:52:14.516Z,99.90
2018-06-21T20:54:49.540Z,99.90
2018-06-21T20:57:25.320Z,99.90
2018-06-21T21:00:00.400Z,99.90
2018-06-21T21:02:35.709Z,99.90
2018-06-21T21:05:10.576Z,99.90
2018-06-21T21:07:47.090Z,99.90
